createdAt,value
2017-12-08T00:00:30.125Z,5.63
2017-12-08T00:01:34.418Z,5.65
2017-12-08T00:02:38.577Z,5.64
2017-12-08T00:03:43.290Z,5.56
2017-12-08T00:04:48.198Z,5.59
2017-12-08T00:05:52.405Z,5.54
2017-12-08T00:06:56.738Z,5.54
2017-12-08T00:08:01.063Z,5.52
2017-12-08T00:09:05.997Z,5.48
2017-12-08T00:10:10.484Z,5.60
2017-12-08T00:11:14.779Z,5.54
2017-12-08T00:12:19.191Z,5.55
2017-12-08T00:13:23.404Z,5.53
2017-12-08T00:14:27.800Z,5.55
2017-12-08T00:15:32.241Z,5.60
2017-12-08T00:16:37.467Z,5.65
2017-12-08T00:17:41.719Z,5.68
2017-12-08T00:18:46.884Z,5.75
2017-12-08T00:19:51.082Z,5.69
2017-12-08T00:20:55.947Z,5.68
2017-12-08T00:22:00.580Z,5.60
2017-12-08T00:23:04.824Z,5.68
2017-12-08T00:24:09.074Z,5.66
2017-12-08T00:25:13.440Z,5.65
2017-12-08T00:26:17.645Z,5.58
2017-12-08T00:27:21.968Z,5.57
2017-12-08T00:28:26.489Z,5.58
2017-12-08T00:29:30.814Z,5.51
2017-12-08T00:30:35.027Z,5.46
2017-12-08T00:31:39.240Z,5.38
2017-12-08T00:32:44.212Z,5.30
2017-12-08T00:33:49.097Z,5.28
2017-12-08T00:34:54.539Z,5.24
2017-12-08T00:35:58.789Z,5.12
2017-12-08T00:37:03.009Z,5.08
2017-12-08T00:38:07.364Z,5.06
2017-12-08T00:39:11.552Z,5.01
2017-12-08T00:40:15.983Z,5.01
2017-12-08T00:41:20.188Z,4.97
2017-12-08T00:42:24.591Z,4.93
2017-12-08T00:43:33.125Z,4.89
2017-12-08T00:44:37.336Z,4.90
2017-12-08T00:45:41.890Z,4.88
2017-12-08T00:46:49.633Z,4.91
2017-12-08T00:47:55.357Z,4.86
2017-12-08T00:48:59.908Z,4.82
2017-12-08T00:50:04.238Z,4.78
2017-12-08T00:51:08.441Z,4.74
2017-12-08T00:52:12.664Z,4.71
2017-12-08T00:53:16.949Z,4.70
2017-12-08T00:54:21.493Z,4.69
2017-12-08T00:55:25.712Z,4.65
2017-12-08T00:56:29.943Z,4.68
2017-12-08T00:57:34.246Z,4.65
2017-12-08T00:58:38.519Z,4.63
2017-12-08T00:59:42.709Z,4.64
2017-12-08T01:00:48.008Z,4.64
2017-12-08T01:01:52.229Z,4.64
2017-12-08T01:02:56.562Z,4.59
2017-12-08T01:04:00.822Z,4.62
2017-12-08T01:05:05.028Z,4.61
2017-12-08T01:06:09.254Z,4.58
2017-12-08T01:07:13.796Z,4.59
2017-12-08T01:08:19.666Z,4.55
2017-12-08T01:09:23.918Z,4.56
2017-12-08T01:10:28.112Z,4.55
2017-12-08T01:11:33.341Z,4.49
2017-12-08T01:12:37.559Z,4.49
2017-12-08T01:13:42.066Z,4.49
2017-12-08T01:14:47.178Z,4.49
2017-12-08T01:15:51.484Z,4.52
2017-12-08T01:16:56.042Z,4.51
2017-12-08T01:18:00.421Z,4.46
2017-12-08T01:19:04.609Z,4.51
2017-12-08T01:20:09.161Z,4.48
2017-12-08T01:21:13.356Z,4.51
2017-12-08T01:22:17.545Z,4.49
2017-12-08T01:23:21.919Z,4.51
2017-12-08T01:24:26.291Z,4.49
2017-12-08T01:25:30.710Z,4.51
2017-12-08T01:26:35.283Z,4.46
2017-12-08T01:27:39.516Z,4.49
2017-12-08T01:28:44.328Z,4.52
2017-12-08T01:29:49.124Z,4.56
2017-12-08T01:30:53.639Z,4.55
2017-12-08T01:31:58.271Z,4.49
2017-12-08T01:33:02.518Z,4.46
2017-12-08T01:34:06.820Z,4.50
2017-12-08T01:35:11.087Z,4.52
2017-12-08T01:36:15.333Z,4.48
2017-12-08T01:37:19.587Z,4.49
2017-12-08T01:38:24.177Z,4.51
2017-12-08T01:39:28.403Z,4.48
2017-12-08T01:40:32.661Z,4.46
2017-12-08T01:41:38.005Z,4.45
2017-12-08T01:42:42.510Z,4.42
2017-12-08T01:43:47.779Z,4.37
2017-12-08T01:44:52.283Z,4.44
2017-12-08T01:45:57.444Z,4.45
2017-12-08T01:47:01.681Z,4.46
2017-12-08T01:48:06.070Z,4.42
2017-12-08T01:49:10.343Z,4.37
2017-12-08T01:50:15.599Z,4.34
2017-12-08T01:51:19.954Z,4.33
2017-12-08T01:52:24.225Z,4.36
2017-12-08T01:53:28.560Z,4.34
2017-12-08T01:54:32.792Z,4.32
2017-12-08T01:55:37.112Z,4.28
2017-12-08T01:56:41.364Z,4.25
2017-12-08T01:57:46.786Z,4.28
2017-12-08T01:58:51.350Z,4.28
2017-12-08T01:59:56.412Z,4.23
2017-12-08T02:01:01.245Z,4.22
2017-12-08T02:02:05.764Z,4.20
2017-12-08T02:03:09.980Z,4.25
2017-12-08T02:04:14.307Z,4.28
2017-12-08T02:05:18.533Z,4.23
2017-12-08T02:06:22.879Z,4.25
2017-12-08T02:07:27.122Z,4.23
2017-12-08T02:08:32.652Z,4.20
2017-12-08T02:09:36.846Z,4.17
2017-12-08T02:10:41.137Z,4.20
2017-12-08T02:11:46.100Z,4.17
2017-12-08T02:12:50.339Z,4.19
2017-12-08T02:13:55.191Z,4.15
2017-12-08T02:15:00.534Z,4.13
2017-12-08T02:16:05.357Z,4.09
2017-12-08T02:17:09.817Z,4.06
2017-12-08T02:18:14.118Z,4.06
2017-12-08T02:19:18.710Z,4.13
2017-12-08T02:20:23.104Z,4.16
2017-12-08T02:21:28.071Z,4.13
2017-12-08T02:22:32.507Z,4.13
2017-12-08T02:23:36.760Z,4.19
2017-12-08T02:24:41.152Z,4.26
2017-12-08T02:25:46.062Z,4.37
2017-12-08T02:26:50.260Z,4.38
2017-12-08T02:27:54.933Z,4.36
2017-12-08T02:28:59.440Z,4.48
2017-12-08T02:30:06.248Z,4.46
2017-12-08T02:31:10.524Z,4.46
2017-12-08T02:32:15.321Z,4.42
2017-12-08T02:33:19.889Z,4.41
2017-12-08T02:34:24.450Z,4.39
2017-12-08T02:35:29.494Z,4.37
2017-12-08T02:36:33.704Z,4.41
2017-12-08T02:37:37.943Z,4.41
2017-12-08T02:38:42.130Z,4.43
2017-12-08T02:39:46.816Z,4.46
2017-12-08T02:40:51.003Z,4.47
2017-12-08T02:41:55.328Z,4.52
2017-12-08T02:42:59.543Z,4.46
2017-12-08T02:44:04.100Z,4.39
2017-12-08T02:45:08.593Z,4.41
2017-12-08T02:46:13.049Z,4.41
2017-12-08T02:47:17.388Z,4.38
2017-12-08T02:48:21.662Z,4.42
2017-12-08T02:49:25.943Z,4.41
2017-12-08T02:50:30.519Z,4.40
2017-12-08T02:51:35.217Z,4.40
2017-12-08T02:52:39.505Z,4.36
2017-12-08T02:53:43.732Z,4.35
2017-12-08T02:54:48.698Z,4.32
2017-12-08T02:55:52.964Z,4.32
2017-12-08T02:56:57.894Z,4.31
2017-12-08T02:58:02.239Z,4.28
2017-12-08T02:59:06.464Z,4.32
2017-12-08T03:00:10.886Z,4.33
2017-12-08T03:01:15.615Z,4.31
2017-12-08T03:02:19.837Z,4.26
2017-12-08T03:03:24.428Z,4.22
2017-12-08T03:04:28.719Z,4.20
2017-12-08T03:05:32.943Z,4.14
2017-12-08T03:06:37.156Z,4.10
2017-12-08T03:07:41.435Z,4.06
2017-12-08T03:08:46.246Z,4.01
2017-12-08T03:09:50.544Z,4.00
2017-12-08T03:10:54.689Z,3.98
2017-12-08T03:11:58.828Z,4.08
2017-12-08T03:13:03.121Z,4.10
2017-12-08T03:14:09.396Z,4.09
2017-12-08T03:15:16.498Z,4.09
2017-12-08T03:16:20.725Z,4.10
2017-12-08T03:17:26.989Z,4.16
2017-12-08T03:18:31.262Z,4.16
2017-12-08T03:19:35.441Z,4.22
2017-12-08T03:20:39.678Z,4.19
2017-12-08T03:21:45.182Z,4.19
2017-12-08T03:22:49.518Z,4.22
2017-12-08T03:23:53.852Z,4.29
2017-12-08T03:24:58.427Z,4.30
2017-12-08T03:26:02.865Z,4.28
2017-12-08T03:27:07.072Z,4.29
2017-12-08T03:28:11.293Z,4.27
2017-12-08T03:29:15.557Z,4.33
2017-12-08T03:30:19.885Z,4.32
2017-12-08T03:31:24.101Z,4.30
2017-12-08T03:32:28.582Z,4.29
2017-12-08T03:33:33.152Z,4.29
2017-12-08T03:34:37.642Z,4.30
2017-12-08T03:35:41.819Z,4.30
2017-12-08T03:36:46.020Z,4.21
2017-12-08T03:37:50.275Z,4.17
2017-12-08T03:38:54.512Z,4.15
2017-12-08T03:39:58.751Z,4.08
2017-12-08T03:41:04.353Z,4.03
2017-12-08T03:42:08.587Z,4.09
2017-12-08T03:43:12.798Z,4.03
2017-12-08T03:44:17.636Z,3.94
2017-12-08T03:45:22.005Z,3.93
2017-12-08T03:46:26.217Z,3.89
2017-12-08T03:47:31.048Z,3.83
2017-12-08T03:48:35.226Z,3.81
2017-12-08T03:49:41.182Z,3.86
2017-12-08T03:50:46.018Z,3.79
2017-12-08T03:51:50.201Z,3.81
2017-12-08T03:52:56.201Z,3.81
2017-12-08T03:54:02.068Z,3.83
2017-12-08T03:55:06.902Z,3.83
2017-12-08T03:57:20.539Z,3.78
2017-12-08T03:58:24.714Z,3.95
2017-12-08T03:59:29.248Z,3.91
2017-12-08T04:00:34.556Z,3.91
2017-12-08T04:01:38.864Z,3.86
2017-12-08T04:02:43.062Z,3.83
2017-12-08T04:03:47.267Z,3.83
2017-12-08T04:04:51.574Z,3.86
2017-12-08T04:05:56.106Z,3.82
2017-12-08T04:07:00.301Z,3.81
2017-12-08T04:08:04.610Z,3.80
2017-12-08T04:09:09.149Z,3.88
2017-12-08T04:10:13.926Z,3.83
2017-12-08T04:11:18.812Z,3.82
2017-12-08T04:12:24.203Z,3.77
2017-12-08T04:13:28.413Z,3.72
2017-12-08T04:14:32.597Z,3.71
2017-12-08T04:15:37.252Z,3.67
2017-12-08T04:16:41.792Z,3.67
2017-12-08T04:17:45.990Z,3.67
2017-12-08T04:18:50.197Z,3.65
2017-12-08T04:19:54.397Z,3.60
2017-12-08T04:20:58.907Z,3.64
2017-12-08T04:22:03.036Z,3.69
2017-12-08T04:23:07.335Z,3.67
2017-12-08T04:24:13.363Z,3.75
2017-12-08T04:25:18.512Z,3.73
2017-12-08T04:26:23.881Z,3.65
2017-12-08T04:27:28.097Z,3.67
2017-12-08T04:28:33.279Z,3.71
2017-12-08T04:29:37.474Z,3.75
2017-12-08T04:30:41.699Z,3.81
2017-12-08T04:31:47.408Z,3.79
2017-12-08T04:32:51.640Z,3.73
2017-12-08T04:33:55.860Z,3.67
2017-12-08T04:35:00.035Z,3.63
2017-12-08T04:36:04.274Z,3.66
2017-12-08T04:37:08.516Z,3.67
2017-12-08T04:38:12.964Z,3.64
2017-12-08T04:39:23.213Z,3.60
2017-12-08T04:40:27.428Z,3.60
2017-12-08T04:41:36.655Z,3.56
2017-12-08T04:42:40.898Z,3.51
2017-12-08T04:43:46.961Z,3.52
2017-12-08T04:44:51.507Z,3.49
2017-12-08T04:45:55.787Z,3.48
2017-12-08T04:47:00.386Z,3.44
2017-12-08T04:48:04.898Z,3.43
2017-12-08T04:49:09.245Z,3.46
2017-12-08T04:50:13.492Z,3.44
2017-12-08T04:51:18.021Z,3.50
2017-12-08T04:52:22.216Z,3.51
2017-12-08T04:53:26.535Z,3.52
2017-12-08T04:54:30.763Z,3.52
2017-12-08T04:55:35.085Z,3.56
2017-12-08T04:56:40.500Z,3.58
2017-12-08T04:57:46.059Z,3.55
2017-12-08T04:58:50.354Z,3.53
2017-12-08T04:59:54.587Z,3.50
2017-12-08T05:00:59.240Z,3.59
2017-12-08T05:02:03.390Z,3.57
2017-12-08T05:03:07.673Z,3.55
2017-12-08T05:04:11.938Z,3.52
2017-12-08T05:05:21.508Z,3.51
2017-12-08T05:06:25.679Z,3.52
2017-12-08T05:07:29.851Z,3.52
2017-12-08T05:08:34.502Z,3.48
2017-12-08T05:09:38.726Z,3.45
2017-12-08T05:10:43.283Z,3.39
2017-12-08T05:11:47.478Z,3.40
2017-12-08T05:12:51.634Z,3.42
2017-12-08T05:13:55.892Z,3.42
2017-12-08T05:15:00.088Z,3.38
2017-12-08T05:16:04.990Z,3.40
2017-12-08T05:17:09.510Z,3.40
2017-12-08T05:18:13.736Z,3.38
2017-12-08T05:19:18.977Z,3.33
2017-12-08T05:20:23.188Z,3.36
2017-12-08T05:21:27.497Z,3.32
2017-12-08T05:22:31.682Z,3.36
2017-12-08T05:23:36.227Z,3.38
2017-12-08T05:24:40.499Z,3.43
2017-12-08T05:25:44.705Z,3.43
2017-12-08T05:26:48.989Z,3.45
2017-12-08T05:27:53.130Z,3.44
2017-12-08T05:28:57.627Z,3.47
2017-12-08T05:30:03.196Z,3.47
2017-12-08T05:31:07.607Z,3.43
2017-12-08T05:32:18.665Z,3.43
2017-12-08T05:33:22.879Z,3.43
2017-12-08T05:34:27.139Z,3.32
2017-12-08T05:35:31.668Z,3.32
2017-12-08T05:36:35.909Z,3.25
2017-12-08T05:37:40.475Z,3.18
2017-12-08T05:38:45.793Z,3.15
2017-12-08T05:39:50.861Z,3.13
2017-12-08T05:40:55.602Z,3.07
2017-12-08T05:42:00.486Z,3.09
2017-12-08T05:43:04.656Z,3.12
2017-12-08T05:44:09.110Z,3.10
2017-12-08T05:45:21.299Z,2.92
2017-12-08T05:46:26.738Z,2.80
2017-12-08T05:47:30.939Z,2.76
2017-12-08T05:48:35.214Z,2.74
2017-12-08T05:49:39.459Z,2.73
2017-12-08T05:50:43.798Z,2.73
2017-12-08T05:51:48.048Z,2.69
2017-12-08T05:53:02.686Z,2.68
2017-12-08T05:54:09.303Z,2.60
2017-12-08T05:55:19.243Z,2.55
2017-12-08T05:56:33.519Z,2.51
2017-12-08T05:57:41.788Z,2.53
2017-12-08T05:58:51.038Z,2.57
2017-12-08T05:59:59.947Z,2.52
2017-12-08T06:01:06.313Z,2.50
2017-12-08T06:02:14.177Z,2.51
2017-12-08T06:03:19.246Z,2.51
2017-12-08T06:04:25.293Z,2.57
2017-12-08T06:05:31.485Z,2.63
2017-12-08T06:06:35.733Z,2.74
2017-12-08T06:07:40.004Z,2.82
2017-12-08T06:08:45.083Z,2.88
2017-12-08T06:09:49.399Z,2.88
2017-12-08T06:10:53.947Z,2.91
2017-12-08T06:11:58.208Z,2.94
2017-12-08T06:13:02.475Z,2.93
2017-12-08T06:14:07.093Z,2.95
2017-12-08T06:15:13.698Z,2.91
2017-12-08T06:16:18.984Z,2.92
2017-12-08T06:17:23.750Z,2.90
2017-12-08T06:18:28.031Z,2.91
2017-12-08T06:19:32.340Z,2.87
2017-12-08T06:20:36.627Z,2.86
2017-12-08T06:21:40.941Z,2.84
2017-12-08T06:22:45.536Z,2.82
2017-12-08T06:23:50.178Z,2.88
2017-12-08T06:24:55.100Z,2.87
2017-12-08T06:25:59.873Z,2.83
2017-12-08T06:27:04.790Z,2.76
2017-12-08T06:28:09.066Z,2.72
2017-12-08T06:29:13.298Z,2.68
2017-12-08T06:30:19.143Z,2.61
2017-12-08T06:31:23.699Z,2.57
2017-12-08T06:32:27.994Z,2.53
2017-12-08T06:33:32.878Z,2.59
2017-12-08T06:34:37.173Z,2.56
2017-12-08T06:35:41.507Z,2.56
2017-12-08T06:36:46.190Z,2.61
2017-12-08T06:37:50.435Z,2.58
2017-12-08T06:38:54.639Z,2.54
2017-12-08T06:39:59.765Z,2.53
2017-12-08T06:41:04.617Z,2.57
2017-12-08T06:42:08.880Z,2.58
2017-12-08T06:43:13.984Z,2.60
2017-12-08T06:44:18.495Z,2.58
2017-12-08T06:45:22.949Z,2.53
2017-12-08T06:46:28.101Z,2.55
2017-12-08T06:47:32.835Z,2.55
2017-12-08T06:49:48.412Z,2.52
2017-12-08T06:50:52.783Z,2.57
2017-12-08T06:51:57.059Z,2.55
2017-12-08T06:53:01.291Z,2.51
2017-12-08T06:54:05.552Z,2.50
2017-12-08T06:55:09.738Z,2.50
2017-12-08T06:56:15.849Z,2.57
2017-12-08T06:57:20.139Z,2.66
2017-12-08T06:58:24.652Z,2.70
2017-12-08T06:59:28.863Z,2.72
2017-12-08T07:00:39.192Z,2.67
2017-12-08T07:01:43.808Z,2.70
2017-12-08T07:02:48.617Z,2.73
2017-12-08T07:03:52.881Z,2.76
2017-12-08T07:04:57.207Z,2.72
2017-12-08T07:06:01.811Z,2.75
2017-12-08T07:07:06.055Z,2.76
2017-12-08T07:08:10.236Z,2.73
2017-12-08T07:09:14.618Z,2.75
2017-12-08T07:10:18.879Z,2.71
2017-12-08T07:11:23.490Z,2.73
2017-12-08T07:12:28.419Z,2.77
2017-12-08T07:13:32.787Z,2.81
2017-12-08T07:14:37.036Z,2.82
2017-12-08T07:15:41.407Z,2.79
2017-12-08T07:16:46.181Z,2.78
2017-12-08T07:17:50.548Z,2.82
2017-12-08T07:18:55.099Z,2.90
2017-12-08T07:19:59.279Z,2.92
2017-12-08T07:21:03.977Z,2.94
2017-12-08T07:22:09.451Z,2.95
2017-12-08T07:23:13.956Z,2.96
2017-12-08T07:24:19.171Z,2.96
2017-12-08T07:25:23.445Z,3.01
2017-12-08T07:26:27.665Z,2.98
2017-12-08T07:27:31.958Z,2.97
2017-12-08T07:28:36.235Z,2.95
2017-12-08T07:29:40.551Z,2.96
2017-12-08T07:30:45.812Z,2.98
2017-12-08T07:31:51.176Z,3.02
2017-12-08T07:32:55.463Z,3.10
2017-12-08T07:34:00.337Z,3.10
2017-12-08T07:35:04.609Z,3.17
2017-12-08T07:36:08.949Z,3.17
2017-12-08T07:37:15.867Z,3.19
2017-12-08T07:38:22.301Z,3.23
2017-12-08T07:39:26.481Z,3.22
2017-12-08T07:40:30.711Z,3.27
2017-12-08T07:41:35.046Z,3.25
2017-12-08T07:42:39.593Z,3.28
2017-12-08T07:43:43.827Z,3.34
2017-12-08T07:44:48.520Z,3.31
2017-12-08T07:45:52.945Z,3.29
2017-12-08T07:46:57.148Z,3.31
2017-12-08T07:48:02.397Z,3.33
2017-12-08T07:49:06.578Z,3.37
2017-12-08T07:50:10.838Z,3.38
2017-12-08T07:51:16.400Z,3.28
2017-12-08T07:52:21.184Z,3.22
2017-12-08T07:53:25.550Z,3.20
2017-12-08T07:54:30.736Z,3.24
2017-12-08T07:55:34.993Z,3.28
2017-12-08T07:56:39.531Z,3.35
2017-12-08T07:57:43.721Z,3.30
2017-12-08T07:58:48.959Z,3.35
2017-12-08T07:59:53.222Z,3.37
2017-12-08T08:00:57.585Z,3.31
2017-12-08T08:02:01.830Z,3.24
2017-12-08T08:03:06.330Z,3.28
2017-12-08T08:04:10.657Z,3.36
2017-12-08T08:05:14.891Z,3.38
2017-12-08T08:06:19.873Z,3.35
2017-12-08T08:07:24.072Z,3.35
2017-12-08T08:08:28.574Z,3.33
2017-12-08T08:09:33.211Z,3.36
2017-12-08T08:10:37.395Z,3.35
2017-12-08T08:11:41.679Z,3.34
2017-12-08T08:12:46.240Z,3.37
2017-12-08T08:13:50.542Z,3.39
2017-12-08T08:14:54.817Z,3.38
2017-12-08T08:15:59.445Z,3.38
2017-12-08T08:17:03.652Z,3.41
2017-12-08T08:18:08.156Z,3.48
2017-12-08T08:19:12.401Z,3.47
2017-12-08T08:20:16.713Z,3.49
2017-12-08T08:21:21.711Z,3.52
2017-12-08T08:22:26.277Z,3.52
2017-12-08T08:23:30.643Z,3.56
2017-12-08T08:24:35.251Z,3.57
2017-12-08T08:25:39.630Z,3.54
2017-12-08T08:26:43.901Z,3.61
2017-12-08T08:27:49.159Z,3.70
2017-12-08T08:28:53.480Z,3.67
2017-12-08T08:29:57.630Z,3.58
2017-12-08T08:31:01.958Z,3.55
2017-12-08T08:32:09.781Z,3.59
2017-12-08T08:33:14.359Z,3.67
2017-12-08T08:34:18.935Z,3.81
2017-12-08T08:35:23.198Z,3.88
2017-12-08T08:36:27.387Z,3.72
2017-12-08T08:37:31.719Z,3.75
2017-12-08T08:38:35.930Z,3.75
2017-12-08T08:39:40.329Z,3.71
2017-12-08T08:40:44.563Z,3.70
2017-12-08T08:41:48.815Z,3.65
2017-12-08T08:42:53.385Z,3.58
2017-12-08T08:43:57.646Z,3.63
2017-12-08T08:45:03.550Z,3.71
2017-12-08T08:46:07.822Z,3.73
2017-12-08T08:47:12.057Z,3.75
2017-12-08T08:48:16.372Z,3.71
2017-12-08T08:49:21.137Z,3.79
2017-12-08T08:50:25.689Z,3.78
2017-12-08T08:51:29.906Z,3.88
2017-12-08T08:52:34.132Z,3.80
2017-12-08T08:53:38.443Z,3.73
2017-12-08T08:54:43.321Z,3.78
2017-12-08T08:55:47.533Z,3.79
2017-12-08T08:56:51.949Z,3.92
2017-12-08T08:57:56.168Z,3.87
2017-12-08T08:59:00.435Z,3.75
2017-12-08T09:00:06.940Z,3.75
2017-12-08T09:01:11.463Z,3.61
2017-12-08T09:02:15.812Z,3.60
2017-12-08T09:03:21.420Z,3.63
2017-12-08T09:04:25.730Z,3.70
2017-12-08T09:05:30.004Z,3.75
2017-12-08T09:06:34.234Z,3.77
2017-12-08T09:07:38.423Z,3.77
2017-12-08T09:08:42.781Z,3.76
2017-12-08T09:09:47.081Z,3.69
2017-12-08T09:10:51.398Z,3.65
2017-12-08T09:11:55.596Z,3.56
2017-12-08T09:13:01.235Z,3.54
2017-12-08T09:14:05.744Z,3.48
2017-12-08T09:15:11.883Z,3.45
2017-12-08T09:16:17.834Z,3.29
2017-12-08T09:17:22.027Z,3.23
2017-12-08T09:18:26.245Z,3.21
2017-12-08T09:19:30.905Z,3.21
2017-12-08T09:20:35.127Z,3.16
2017-12-08T09:21:39.445Z,3.21
2017-12-08T09:22:43.764Z,3.14
2017-12-08T09:23:48.627Z,3.11
2017-12-08T09:24:53.294Z,3.15
2017-12-08T09:25:57.884Z,3.13
2017-12-08T09:27:02.132Z,3.13
2017-12-08T09:28:06.504Z,3.16
2017-12-08T09:29:11.670Z,3.12
2017-12-08T09:30:17.104Z,3.02
2017-12-08T09:31:22.872Z,3.02
2017-12-08T09:32:27.167Z,3.04
2017-12-08T09:33:31.488Z,3.00
2017-12-08T09:34:36.694Z,3.00
2017-12-08T09:35:40.907Z,3.01
2017-12-08T09:36:45.623Z,2.97
2017-12-08T09:37:51.218Z,2.92
2017-12-08T09:38:55.483Z,2.86
2017-12-08T09:39:59.773Z,2.84
2017-12-08T09:41:04.284Z,2.78
2017-12-08T09:42:08.517Z,2.77
2017-12-08T09:43:12.841Z,2.84
2017-12-08T09:44:18.492Z,2.90
2017-12-08T09:45:22.790Z,2.91
2017-12-08T09:46:28.675Z,2.87
2017-12-08T09:47:32.883Z,2.85
2017-12-08T09:48:37.139Z,2.86
2017-12-08T09:49:42.252Z,2.85
2017-12-08T09:50:47.612Z,2.80
2017-12-08T09:51:51.869Z,2.82
2017-12-08T09:52:56.192Z,2.86
2017-12-08T09:54:02.098Z,2.92
2017-12-08T09:55:06.400Z,2.91
2017-12-08T09:56:10.804Z,2.90
2017-12-08T09:57:15.088Z,2.84
2017-12-08T09:58:20.270Z,2.82
2017-12-08T09:59:24.591Z,2.85
2017-12-08T10:00:30.227Z,2.79
2017-12-08T10:01:35.650Z,2.76
2017-12-08T10:02:39.894Z,2.71
2017-12-08T10:03:45.805Z,2.71
2017-12-08T10:04:50.067Z,2.68
2017-12-08T10:05:54.305Z,2.68
2017-12-08T10:06:58.635Z,2.72
2017-12-08T10:08:02.870Z,2.71
2017-12-08T10:09:07.491Z,2.75
2017-12-08T10:10:12.576Z,2.74
2017-12-08T10:11:16.901Z,2.77
2017-12-08T10:12:21.166Z,2.76
2017-12-08T10:13:25.567Z,2.73
2017-12-08T10:14:30.074Z,2.74
2017-12-08T10:15:34.549Z,2.88
2017-12-08T10:16:39.138Z,2.83
2017-12-08T10:17:44.116Z,2.80
2017-12-08T10:18:48.330Z,2.80
2017-12-08T10:19:52.531Z,2.78
2017-12-08T10:20:56.851Z,2.91
2017-12-08T10:22:01.492Z,2.96
2017-12-08T10:23:05.769Z,2.83
2017-12-08T10:24:14.123Z,2.82
2017-12-08T10:25:18.444Z,2.76
2017-12-08T10:26:23.579Z,2.70
2017-12-08T10:27:27.757Z,2.58
2017-12-08T10:28:32.316Z,2.66
2017-12-08T10:29:36.667Z,2.71
2017-12-08T10:30:41.087Z,2.58
2017-12-08T10:31:46.115Z,2.45
2017-12-08T10:32:50.664Z,2.49
2017-12-08T10:33:54.936Z,2.54
2017-12-08T10:34:59.655Z,2.51
2017-12-08T10:36:04.120Z,2.48
2017-12-08T10:37:08.440Z,2.35
2017-12-08T10:38:12.809Z,2.24
2017-12-08T10:39:17.074Z,2.29
2017-12-08T10:40:24.199Z,2.41
2017-12-08T10:41:28.712Z,2.39
2017-12-08T10:42:33.090Z,2.47
2017-12-08T10:43:37.339Z,2.49
2017-12-08T10:44:41.519Z,2.44
2017-12-08T10:45:46.153Z,2.33
2017-12-08T10:46:55.117Z,2.26
2017-12-08T10:47:59.410Z,2.22
2017-12-08T10:49:05.780Z,2.31
2017-12-08T10:50:10.063Z,2.34
2017-12-08T10:51:14.436Z,2.28
2017-12-08T10:52:20.050Z,2.25
2017-12-08T10:53:24.311Z,2.32
2017-12-08T10:54:28.676Z,2.36
2017-12-08T10:55:32.999Z,2.27
2017-12-08T10:56:37.342Z,2.12
2017-12-08T10:57:41.570Z,2.07
2017-12-08T10:58:46.884Z,2.16
2017-12-08T10:59:51.275Z,2.08
2017-12-08T11:00:55.782Z,2.15
2017-12-08T11:02:00.326Z,2.12
2017-12-08T11:03:04.582Z,2.07
2017-12-08T11:04:08.827Z,2.12
2017-12-08T11:05:22.572Z,2.03
2017-12-08T11:06:27.678Z,1.95
2017-12-08T11:07:32.282Z,1.99
2017-12-08T11:08:36.503Z,1.86
2017-12-08T11:09:40.786Z,1.87
2017-12-08T11:10:46.117Z,1.77
2017-12-08T11:11:50.366Z,1.70
2017-12-08T11:12:55.836Z,1.48
2017-12-08T11:14:00.141Z,1.30
2017-12-08T11:15:05.638Z,1.23
2017-12-08T11:16:10.178Z,1.18
2017-12-08T11:17:14.747Z,1.12
2017-12-08T11:18:19.718Z,1.16
2017-12-08T11:19:23.976Z,1.00
2017-12-08T11:20:28.258Z,0.98
2017-12-08T11:21:32.678Z,0.92
2017-12-08T11:22:37.311Z,0.93
2017-12-08T11:23:41.621Z,0.96
2017-12-08T11:24:45.958Z,1.01
2017-12-08T11:25:50.160Z,0.89
2017-12-08T11:26:54.409Z,0.74
2017-12-08T11:27:58.995Z,0.62
2017-12-08T11:29:03.750Z,0.67
2017-12-08T11:30:08.359Z,0.61
2017-12-08T11:31:12.691Z,0.61
2017-12-08T11:32:17.916Z,0.69
2017-12-08T11:33:22.160Z,0.66
2017-12-08T11:34:26.860Z,0.70
2017-12-08T11:35:31.407Z,0.77
2017-12-08T11:36:35.723Z,0.67
2017-12-08T11:37:39.996Z,0.69
2017-12-08T11:38:44.243Z,0.66
2017-12-08T11:39:48.540Z,0.57
2017-12-08T11:40:52.886Z,0.62
2017-12-08T11:41:57.176Z,0.64
2017-12-08T11:43:01.763Z,0.69
2017-12-08T11:44:06.106Z,0.76
2017-12-08T11:45:13.217Z,0.77
2017-12-08T11:46:18.254Z,0.83
2017-12-08T11:47:22.511Z,0.86
2017-12-08T11:48:26.902Z,0.91
2017-12-08T11:49:31.169Z,0.88
2017-12-08T11:50:35.384Z,0.79
2017-12-08T11:51:39.678Z,0.85
2017-12-08T11:52:45.228Z,0.75
2017-12-08T11:53:49.715Z,0.69
2017-12-08T11:54:54.811Z,0.70
2017-12-08T11:55:59.186Z,0.67
2017-12-08T11:57:03.806Z,0.68
2017-12-08T11:58:08.006Z,0.70
2017-12-08T11:59:12.311Z,0.67
2017-12-08T12:00:24.126Z,0.68
2017-12-08T12:01:28.506Z,0.82
2017-12-08T12:02:32.777Z,0.91
2017-12-08T12:03:37.053Z,0.89
2017-12-08T12:04:41.275Z,0.83
2017-12-08T12:05:45.531Z,0.79
2017-12-08T12:06:49.762Z,0.77
2017-12-08T12:07:54.110Z,0.83
2017-12-08T12:08:58.369Z,0.87
2017-12-08T12:10:02.951Z,0.91
2017-12-08T12:11:07.280Z,0.86
2017-12-08T12:12:11.516Z,0.90
2017-12-08T12:13:15.809Z,1.02
2017-12-08T12:14:20.909Z,1.10
2017-12-08T12:15:25.260Z,1.16
2017-12-08T12:16:29.926Z,1.16
2017-12-08T12:18:37.314Z,1.00
2017-12-08T12:19:41.746Z,1.00
2017-12-08T12:20:46.767Z,0.98
2017-12-08T12:21:51.326Z,0.99
2017-12-08T12:22:55.582Z,0.98
2017-12-08T12:23:59.856Z,1.04
2017-12-08T12:25:06.995Z,1.03
2017-12-08T12:26:11.215Z,1.08
2017-12-08T12:27:15.567Z,1.05
2017-12-08T12:28:22.022Z,1.06
2017-12-08T12:29:26.296Z,1.01
2017-12-08T12:30:30.913Z,1.01
2017-12-08T12:31:35.421Z,1.02
2017-12-08T12:32:40.767Z,1.06
2017-12-08T12:33:45.585Z,1.12
2017-12-08T12:34:50.218Z,1.14
2017-12-08T12:35:54.492Z,1.21
2017-12-08T12:36:58.708Z,1.35
2017-12-08T12:38:02.935Z,1.48
2017-12-08T12:39:07.598Z,1.49
2017-12-08T12:40:11.902Z,1.45
2017-12-08T12:44:41.033Z,1.45
2017-12-08T12:45:53.301Z,1.46
2017-12-08T12:46:57.495Z,1.48
2017-12-08T12:48:01.818Z,1.39
2017-12-08T12:49:06.757Z,1.41
2017-12-08T12:50:11.005Z,1.42
2017-12-08T12:51:15.263Z,1.50
2017-12-08T12:52:19.476Z,1.60
2017-12-08T12:53:23.691Z,1.55
2017-12-08T12:54:28.654Z,1.43
2017-12-08T12:55:34.194Z,1.38
2017-12-08T12:56:38.497Z,1.45
2017-12-08T12:57:44.238Z,1.36
2017-12-08T12:58:48.510Z,1.36
2017-12-08T12:59:52.815Z,1.40
2017-12-08T13:01:00.450Z,1.45
2017-12-08T13:02:07.062Z,1.37
2017-12-08T13:03:12.910Z,1.30
2017-12-08T13:04:18.766Z,1.35
2017-12-08T13:05:23.048Z,1.39
2017-12-08T13:06:28.265Z,1.56
2017-12-08T13:07:42.645Z,1.62
2017-12-08T13:08:46.956Z,1.62
2017-12-08T13:09:52.814Z,1.58
2017-12-08T13:10:57.124Z,1.58
2017-12-08T13:12:08.592Z,1.64
2017-12-08T13:13:14.180Z,1.73
2017-12-08T13:14:22.110Z,1.81
2017-12-08T13:15:26.539Z,1.77
2017-12-08T13:16:31.927Z,1.62
2017-12-08T13:17:38.262Z,1.51
2017-12-08T13:18:43.118Z,1.49
2017-12-08T13:20:08.849Z,1.62
2017-12-08T13:21:23.636Z,1.81
2017-12-08T13:22:29.264Z,1.73
2017-12-08T13:23:35.166Z,1.70
2017-12-08T13:24:39.431Z,1.69
2017-12-08T13:25:43.728Z,1.65
2017-12-08T13:26:48.437Z,1.70
2017-12-08T13:27:53.326Z,1.90
2017-12-08T13:28:57.563Z,1.91
2017-12-08T13:30:03.534Z,1.95
2017-12-08T13:31:07.801Z,1.80
2017-12-08T13:32:29.785Z,1.77
2017-12-08T13:33:34.162Z,1.82
2017-12-08T13:34:38.567Z,1.76
2017-12-08T13:35:43.363Z,1.68
2017-12-08T13:36:48.208Z,1.59
2017-12-08T13:37:52.546Z,1.57
2017-12-08T13:38:57.778Z,1.61
2017-12-08T13:40:01.999Z,1.57
2017-12-08T13:41:08.753Z,1.52
2017-12-08T13:43:42.213Z,1.51
2017-12-08T13:44:48.838Z,1.51
2017-12-08T13:45:55.014Z,1.48
2017-12-08T13:47:00.611Z,1.52
2017-12-08T13:48:05.960Z,1.60
2017-12-08T13:49:11.130Z,1.79
2017-12-08T13:50:17.598Z,1.90
2017-12-08T13:51:21.939Z,1.83
2017-12-08T13:52:26.250Z,1.70
2017-12-08T13:53:39.189Z,1.66
2017-12-08T13:56:55.967Z,1.65
2017-12-08T13:58:00.478Z,1.77
2017-12-08T13:59:09.934Z,1.94
2017-12-08T14:00:16.594Z,2.07
2017-12-08T14:01:42.701Z,2.13
2017-12-08T14:02:51.827Z,2.05
2017-12-08T14:03:57.123Z,1.95
2017-12-08T14:05:02.236Z,1.93
2017-12-08T14:06:16.522Z,1.88
2017-12-08T14:07:22.005Z,1.91
2017-12-08T14:08:26.387Z,1.92
2017-12-08T14:09:30.853Z,1.89
2017-12-08T14:10:36.124Z,1.88
2017-12-08T14:11:40.455Z,1.88
2017-12-08T14:12:46.821Z,1.85
2017-12-08T14:14:02.354Z,1.80
2017-12-08T14:15:07.367Z,1.78
2017-12-08T14:16:12.210Z,1.71
2017-12-08T14:17:16.416Z,1.66
2017-12-08T14:18:22.103Z,1.64
2017-12-08T14:19:27.261Z,1.68
2017-12-08T14:20:31.949Z,1.62
2017-12-08T14:21:37.034Z,1.61
2017-12-08T14:22:43.137Z,1.61
2017-12-08T14:23:48.468Z,1.57
2017-12-08T14:24:52.874Z,1.57
2017-12-08T14:26:01.845Z,1.51
2017-12-08T14:27:06.900Z,1.52
2017-12-08T14:28:11.826Z,1.49
2017-12-08T14:29:18.170Z,1.46
2017-12-08T14:30:22.610Z,1.46
2017-12-08T14:31:26.883Z,1.49
2017-12-08T14:32:33.239Z,1.51
2017-12-08T14:33:39.251Z,1.51
2017-12-08T14:34:45.516Z,1.46